sensor_id;sensor_type;location;lat;lon;timestamp;P1;durP1;ratioP1;P2;durP2;ratioP2
37701;SDS011;23548;51.196;6.838;2023-02-28T00:01:19;9.57;;;6.00;;
37701;SDS011;23548;51.196;6.838;2023-02-28T00:03:45;11.50;;;5.55;;
37701;SDS011;23548;51.196;6.838;2023-02-28T00:06:11;9.43;;;5.80;;
37701;SDS011;23548;51.196;6.838;2023-02-28T00:08:37;11.35;;;5.55;;
37701;SDS011;23548;51.196;6.838;2023-02-28T00:11:04;9.02;;;5.47;;
37701;SDS011;23548;51.196;6.838;2023-02-28T00:13:33;10.23;;;5.88;;
37701;SDS011;23548;51.196;6.838;2023-02-28T00:16:03;12.05;;;6.20;;
37701;SDS011;23548;51.196;6.838;2023-02-28T00:18:31;9.70;;;6.05;;
37701;SDS011;23548;51.196;6.838;2023-02-28T00:20:58;15.55;;;6.43;;
37701;SDS011;23548;51.196;6.838;2023-02-28T00:23:24;11.25;;;6.10;;
37701;SDS011;23548;51.196;6.838;2023-02-28T00:25:51;12.38;;;6.30;;
37701;SDS011;23548;51.196;6.838;2023-02-28T00:28:17;15.23;;;6.40;;
37701;SDS011;23548;51.196;6.838;2023-02-28T00:30:43;10.63;;;6.28;;
37701;SDS011;23548;51.196;6.838;2023-02-28T00:33:09;11.75;;;6.00;;
37701;SDS011;23548;51.196;6.838;2023-02-28T00:35:35;10.45;;;5.75;;
37701;SDS011;23548;51.196;6.838;2023-02-28T00:38:01;14.48;;;6.00;;
37701;SDS011;23548;51.196;6.838;2023-02-28T00:40:27;9.95;;;5.57;;
37701;SDS011;23548;51.196;6.838;2023-02-28T00:42:53;9.02;;;5.43;;
37701;SDS011;23548;51.196;6.838;2023-02-28T00:45:19;11.57;;;5.70;;
37701;SDS011;23548;51.196;6.838;2023-02-28T00:47:44;11.95;;;6.53;;
37701;SDS011;23548;51.196;6.838;2023-02-28T00:50:11;13.55;;;6.20;;
37701;SDS011;23548;51.196;6.838;2023-02-28T00:52:37;12.02;;;6.00;;
37701;SDS011;23548;51.196;6.838;2023-02-28T00:55:03;13.60;;;5.95;;
37701;SDS011;23548;51.196;6.838;2023-02-28T00:57:29;12.85;;;6.40;;
37701;SDS011;23548;51.196;6.838;2023-02-28T00:59:55;12.30;;;6.25;;
37701;SDS011;23548;51.196;6.838;2023-02-28T01:02:21;9.73;;;6.28;;
37701;SDS011;23548;51.196;6.838;2023-02-28T01:04:47;13.82;;;6.63;;
37701;SDS011;23548;51.196;6.838;2023-02-28T01:07:13;9.95;;;6.07;;
37701;SDS011;23548;51.196;6.838;2023-02-28T01:09:40;11.63;;;6.28;;
37701;SDS011;23548;51.196;6.838;2023-02-28T01:12:06;9.77;;;6.35;;
37701;SDS011;23548;51.196;6.838;2023-02-28T01:14:33;8.30;;;5.85;;
37701;SDS011;23548;51.196;6.838;2023-02-28T01:17:00;11.05;;;6.25;;
37701;SDS011;23548;51.196;6.838;2023-02-28T01:19:26;15.93;;;6.00;;
37701;SDS011;23548;51.196;6.838;2023-02-28T01:21:52;10.43;;;6.07;;
37701;SDS011;23548;51.196;6.838;2023-02-28T01:24:17;12.48;;;6.43;;
37701;SDS011;23548;51.196;6.838;2023-02-28T01:26:43;10.40;;;6.15;;
37701;SDS011;23548;51.196;6.838;2023-02-28T01:29:09;9.63;;;6.05;;
37701;SDS011;23548;51.196;6.838;2023-02-28T01:31:35;12.63;;;6.82;;
37701;SDS011;23548;51.196;6.838;2023-02-28T01:34:02;13.60;;;5.93;;
37701;SDS011;23548;51.196;6.838;2023-02-28T01:36:28;10.30;;;5.60;;
37701;SDS011;23548;51.196;6.838;2023-02-28T01:38:54;12.07;;;6.50;;
37701;SDS011;23548;51.196;6.838;2023-02-28T01:41:21;13.30;;;6.45;;
37701;SDS011;23548;51.196;6.838;2023-02-28T01:46:14;17.38;;;7.82;;
37701;SDS011;23548;51.196;6.838;2023-02-28T01:48:48;13.93;;;6.93;;
37701;SDS011;23548;51.196;6.838;2023-02-28T01:51:51;12.95;;;6.53;;
37701;SDS011;23548;51.196;6.838;2023-02-28T01:54:29;11.45;;;6.22;;
37701;SDS011;23548;51.196;6.838;2023-02-28T01:56:58;12.30;;;6.97;;
37701;SDS011;23548;51.196;6.838;2023-02-28T02:02:30;13.32;;;6.68;;
37701;SDS011;23548;51.196;6.838;2023-02-28T02:04:57;19.70;;;7.63;;
37701;SDS011;23548;51.196;6.838;2023-02-28T02:07:33;13.20;;;7.80;;
37701;SDS011;23548;51.196;6.838;2023-02-28T02:10:10;16.65;;;7.65;;
37701;SDS011;23548;51.196;6.838;2023-02-28T02:17:55;16.85;;;7.45;;
37701;SDS011;23548;51.196;6.838;2023-02-28T02:36:48;12.15;;;7.80;;
37701;SDS011;23548;51.196;6.838;2023-02-28T02:47:52;14.40;;;7.32;;
37701;SDS011;23548;51.196;6.838;2023-02-28T02:50:22;12.88;;;7.30;;
37701;SDS011;23548;51.196;6.838;2023-02-28T02:52:53;10.95;;;7.03;;
37701;SDS011;23548;51.196;6.838;2023-02-28T02:55:22;14.23;;;7.00;;
37701;SDS011;23548;51.196;6.838;2023-02-28T02:57:50;11.55;;;6.90;;
37701;SDS011;23548;51.196;6.838;2023-02-28T03:00:22;10.98;;;7.25;;
37701;SDS011;23548;51.196;6.838;2023-02-28T03:02:52;15.52;;;7.22;;
37701;SDS011;23548;51.196;6.838;2023-02-28T03:05:21;12.50;;;7.20;;
37701;SDS011;23548;51.196;6.838;2023-02-28T03:07:51;10.90;;;6.53;;
37701;SDS011;23548;51.196;6.838;2023-02-28T03:12:55;12.55;;;6.90;;
37701;SDS011;23548;51.196;6.838;2023-02-28T03:15:33;14.38;;;7.40;;
37701;SDS011;23548;51.196;6.838;2023-02-28T03:18:25;10.73;;;6.72;;
37701;SDS011;23548;51.196;6.838;2023-02-28T03:24:27;12.43;;;7.18;;
37701;SDS011;23548;51.196;6.838;2023-02-28T03:27:21;12.85;;;7.38;;
37701;SDS011;23548;51.196;6.838;2023-02-28T03:30:14;13.45;;;7.63;;
37701;SDS011;23548;51.196;6.838;2023-02-28T03:32:56;12.75;;;7.97;;
37701;SDS011;23548;51.196;6.838;2023-02-28T03:35:25;16.02;;;7.75;;
37701;SDS011;23548;51.196;6.838;2023-02-28T03:38:01;13.50;;;7.97;;
37701;SDS011;23548;51.196;6.838;2023-02-28T03:40:33;13.80;;;7.65;;
37701;SDS011;23548;51.196;6.838;2023-02-28T03:43:03;10.98;;;6.80;;
37701;SDS011;23548;51.196;6.838;2023-02-28T03:45:35;12.32;;;6.72;;
37701;SDS011;23548;51.196;6.838;2023-02-28T03:48:14;16.52;;;9.82;;
37701;SDS011;23548;51.196;6.838;2023-02-28T03:50:57;11.32;;;6.88;;
37701;SDS011;23548;51.196;6.838;2023-02-28T03:53:27;11.10;;;6.97;;
37701;SDS011;23548;51.196;6.838;2023-02-28T03:56:04;11.50;;;6.57;;
37701;SDS011;23548;51.196;6.838;2023-02-28T04:01:39;12.70;;;6.82;;
37701;SDS011;23548;51.196;6.838;2023-02-28T04:04:11;9.48;;;6.50;;
37701;SDS011;23548;51.196;6.838;2023-02-28T04:06:39;10.23;;;6.30;;
37701;SDS011;23548;51.196;6.838;2023-02-28T04:09:06;10.73;;;6.65;;
37701;SDS011;23548;51.196;6.838;2023-02-28T04:11:34;9.48;;;6.50;;
37701;SDS011;23548;51.196;6.838;2023-02-28T04:14:05;8.55;;;6.07;;
37701;SDS011;23548;51.196;6.838;2023-02-28T04:16:33;10.27;;;6.07;;
37701;SDS011;23548;51.196;6.838;2023-02-28T04:19:00;10.02;;;5.95;;
37701;SDS011;23548;51.196;6.838;2023-02-28T04:21:32;9.23;;;5.97;;
37701;SDS011;23548;51.196;6.838;2023-02-28T04:24:01;11.23;;;6.78;;
37701;SDS011;23548;51.196;6.838;2023-02-28T04:26:31;7.72;;;5.63;;
37701;SDS011;23548;51.196;6.838;2023-02-28T04:31:37;10.48;;;5.90;;
37701;SDS011;23548;51.196;6.838;2023-02-28T04:34:03;9.57;;;6.13;;
37701;SDS011;23548;51.196;6.838;2023-02-28T04:36:29;9.15;;;6.57;;
37701;SDS011;23548;51.196;6.838;2023-02-28T04:38:54;9.15;;;6.13;;
37701;SDS011;23548;51.196;6.838;2023-02-28T04:41:21;13.30;;;9.98;;
37701;SDS011;23548;51.196;6.838;2023-02-28T04:43:48;9.57;;;5.65;;
37701;SDS011;23548;51.196;6.838;2023-02-28T04:46:14;8.73;;;5.85;;
37701;SDS011;23548;51.196;6.838;2023-02-28T04:48:40;9.77;;;5.93;;
37701;SDS011;23548;51.196;6.838;2023-02-28T04:51:10;14.05;;;6.10;;
37701;SDS011;23548;51.196;6.838;2023-02-28T04:53:37;9.95;;;5.88;;
37701;SDS011;23548;51.196;6.838;2023-02-28T04:56:04;13.05;;;6.32;;
37701;SDS011;23548;51.196;6.838;2023-02-28T04:58:31;8.05;;;5.32;;
37701;SDS011;23548;51.196;6.838;2023-02-28T05:01:01;8.43;;;5.47;;
37701;SDS011;23548;51.196;6.838;2023-02-28T05:03:28;7.15;;;5.45;;
37701;SDS011;23548;51.196;6.838;2023-02-28T05:05:54;9.75;;;5.75;;
37701;SDS011;23548;51.196;6.838;2023-02-28T05:08:20;9.13;;;5.22;;
37701;SDS011;23548;51.196;6.838;2023-02-28T05:10:46;9.30;;;5.70;;
37701;SDS011;23548;51.196;6.838;2023-02-28T05:13:12;9.95;;;5.82;;
37701;SDS011;23548;51.196;6.838;2023-02-28T05:15:38;12.13;;;6.75;;
37701;SDS011;23548;51.196;6.838;2023-02-28T05:18:04;12.00;;;6.00;;
37701;SDS011;23548;51.196;6.838;2023-02-28T05:20:30;10.75;;;5.35;;
37701;SDS011;23548;51.196;6.838;2023-02-28T05:22:56;12.02;;;5.88;;
37701;SDS011;23548;51.196;6.838;2023-02-28T05:25:23;9.27;;;5.55;;
37701;SDS011;23548;51.196;6.838;2023-02-28T05:27:49;9.30;;;5.53;;
37701;SDS011;23548;51.196;6.838;2023-02-28T05:30:16;12.00;;;6.00;;
37701;SDS011;23548;51.196;6.838;2023-02-28T05:32:41;10.73;;;5.32;;
37701;SDS011;23548;51.196;6.838;2023-02-28T05:35:08;10.18;;;5.07;;
37701;SDS011;23548;51.196;6.838;2023-02-28T05:37:37;7.80;;;5.25;;
37701;SDS011;23548;51.196;6.838;2023-02-28T05:40:05;8.65;;;5.32;;
37701;SDS011;23548;51.196;6.838;2023-02-28T05:42:32;7.70;;;5.13;;
37701;SDS011;23548;51.196;6.838;2023-02-28T05:44:58;10.77;;;5.72;;
37701;SDS011;23548;51.196;6.838;2023-02-28T05:47:24;8.32;;;5.55;;
37701;SDS011;23548;51.196;6.838;2023-02-28T05:49:50;11.05;;;5.45;;
37701;SDS011;23548;51.196;6.838;2023-02-28T05:52:16;11.32;;;5.78;;
37701;SDS011;23548;51.196;6.838;2023-02-28T05:54:42;9.15;;;5.28;;
37701;SDS011;23548;51.196;6.838;2023-02-28T05:57:07;8.70;;;5.50;;
37701;SDS011;23548;51.196;6.838;2023-02-28T05:59:33;10.10;;;5.10;;
37701;SDS011;23548;51.196;6.838;2023-02-28T06:01:59;8.05;;;5.30;;
37701;SDS011;23548;51.196;6.838;2023-02-28T06:04:25;12.80;;;5.43;;
37701;SDS011;23548;51.196;6.838;2023-02-28T06:06:50;8.10;;;5.07;;
37701;SDS011;23548;51.196;6.838;2023-02-28T06:09:17;8.57;;;4.60;;
37701;SDS011;23548;51.196;6.838;2023-02-28T06:11:44;7.20;;;5.13;;
37701;SDS011;23548;51.196;6.838;2023-02-28T06:14:12;8.93;;;5.15;;
37701;SDS011;23548;51.196;6.838;2023-02-28T06:16:41;12.27;;;5.82;;
37701;SDS011;23548;51.196;6.838;2023-02-28T06:19:08;8.13;;;5.38;;
37701;SDS011;23548;51.196;6.838;2023-02-28T06:21:35;10.57;;;4.90;;
37701;SDS011;23548;51.196;6.838;2023-02-28T06:24:01;9.55;;;6.05;;
37701;SDS011;23548;51.196;6.838;2023-02-28T06:26:28;11.40;;;5.35;;
37701;SDS011;23548;51.196;6.838;2023-02-28T06:28:54;11.45;;;5.35;;
37701;SDS011;23548;51.196;6.838;2023-02-28T06:31:20;10.23;;;5.70;;
37701;SDS011;23548;51.196;6.838;2023-02-28T06:33:46;10.57;;;5.78;;
37701;SDS011;23548;51.196;6.838;2023-02-28T06:36:12;7.57;;;5.10;;
37701;SDS011;23548;51.196;6.838;2023-02-28T06:38:39;9.35;;;5.07;;
37701;SDS011;23548;51.196;6.838;2023-02-28T06:41:06;11.05;;;5.88;;
37701;SDS011;23548;51.196;6.838;2023-02-28T06:43:35;8.82;;;5.13;;
37701;SDS011;23548;51.196;6.838;2023-02-28T06:46:04;10.85;;;5.57;;
37701;SDS011;23548;51.196;6.838;2023-02-28T06:48:32;13.60;;;6.53;;
37701;SDS011;23548;51.196;6.838;2023-02-28T06:51:08;11.50;;;5.03;;
37701;SDS011;23548;51.196;6.838;2023-02-28T06:53:36;7.38;;;4.90;;
37701;SDS011;23548;51.196;6.838;2023-02-28T06:56:05;16.63;;;5.20;;
37701;SDS011;23548;51.196;6.838;2023-02-28T06:58:32;11.93;;;5.07;;
37701;SDS011;23548;51.196;6.838;2023-02-28T07:00:58;11.50;;;5.00;;
37701;SDS011;23548;51.196;6.838;2023-02-28T07:03:24;8.25;;;4.88;;
37701;SDS011;23548;51.196;6.838;2023-02-28T07:05:50;11.23;;;5.25;;
37701;SDS011;23548;51.196;6.838;2023-02-28T07:08:15;9.25;;;4.95;;
37701;SDS011;23548;51.196;6.838;2023-02-28T07:10:41;11.10;;;4.72;;
37701;SDS011;23548;51.196;6.838;2023-02-28T07:13:07;7.28;;;5.07;;
37701;SDS011;23548;51.196;6.838;2023-02-28T07:15:34;8.15;;;5.75;;
37701;SDS011;23548;51.196;6.838;2023-02-28T07:18:01;7.60;;;4.90;;
37701;SDS011;23548;51.196;6.838;2023-02-28T07:20:27;11.43;;;5.57;;
37701;SDS011;23548;51.196;6.838;2023-02-28T07:22:52;18.23;;;5.60;;
37701;SDS011;23548;51.196;6.838;2023-02-28T07:25:24;12.57;;;5.10;;
37701;SDS011;23548;51.196;6.838;2023-02-28T07:27:51;10.93;;;5.90;;
37701;SDS011;23548;51.196;6.838;2023-02-28T07:30:18;8.55;;;4.72;;
37701;SDS011;23548;51.196;6.838;2023-02-28T07:32:44;11.15;;;4.90;;
37701;SDS011;23548;51.196;6.838;2023-02-28T07:35:10;8.07;;;5.05;;
37701;SDS011;23548;51.196;6.838;2023-02-28T07:37:36;9.73;;;4.75;;
37701;SDS011;23548;51.196;6.838;2023-02-28T07:40:05;14.77;;;5.68;;
37701;SDS011;23548;51.196;6.838;2023-02-28T07:42:38;12.00;;;5.55;;
37701;SDS011;23548;51.196;6.838;2023-02-28T07:45:05;25.35;;;5.13;;
37701;SDS011;23548;51.196;6.838;2023-02-28T07:47:32;10.50;;;4.80;;
37701;SDS011;23548;51.196;6.838;2023-02-28T07:49:58;13.05;;;5.30;;
37701;SDS011;23548;51.196;6.838;2023-02-28T07:52:24;19.55;;;5.53;;
37701;SDS011;23548;51.196;6.838;2023-02-28T07:54:50;8.30;;;4.50;;
37701;SDS011;23548;51.196;6.838;2023-02-28T07:57:16;13.07;;;5.03;;
37701;SDS011;23548;51.196;6.838;2023-02-28T07:59:42;10.82;;;4.93;;
37701;SDS011;23548;51.196;6.838;2023-02-28T08:02:14;19.10;;;4.75;;
37701;SDS011;23548;51.196;6.838;2023-02-28T08:04:41;13.73;;;4.72;;
37701;SDS011;23548;51.196;6.838;2023-02-28T08:07:07;21.55;;;4.80;;
37701;SDS011;23548;51.196;6.838;2023-02-28T08:09:33;12.60;;;4.13;;
37701;SDS011;23548;51.196;6.838;2023-02-28T08:12:00;15.45;;;5.30;;
37701;SDS011;23548;51.196;6.838;2023-02-28T08:14:26;7.22;;;4.05;;
37701;SDS011;23548;51.196;6.838;2023-02-28T08:16:51;12.25;;;4.40;;
37701;SDS011;23548;51.196;6.838;2023-02-28T08:19:18;11.73;;;4.00;;
37701;SDS011;23548;51.196;6.838;2023-02-28T08:21:43;7.03;;;3.95;;
37701;SDS011;23548;51.196;6.838;2023-02-28T08:24:09;5.95;;;3.78;;
37701;SDS011;23548;51.196;6.838;2023-02-28T08:26:35;14.20;;;4.22;;
37701;SDS011;23548;51.196;6.838;2023-02-28T08:29:01;7.32;;;4.05;;
37701;SDS011;23548;51.196;6.838;2023-02-28T08:31:26;6.57;;;3.80;;
37701;SDS011;23548;51.196;6.838;2023-02-28T08:33:52;10.70;;;3.38;;
37701;SDS011;23548;51.196;6.838;2023-02-28T08:36:20;9.27;;;3.92;;
37701;SDS011;23548;51.196;6.838;2023-02-28T08:38:46;12.57;;;4.25;;
37701;SDS011;23548;51.196;6.838;2023-02-28T08:41:12;11.23;;;3.50;;
37701;SDS011;23548;51.196;6.838;2023-02-28T08:43:39;7.35;;;3.95;;
37701;SDS011;23548;51.196;6.838;2023-02-28T08:46:05;12.15;;;3.30;;
37701;SDS011;23548;51.196;6.838;2023-02-28T08:48:32;9.07;;;3.28;;
37701;SDS011;23548;51.196;6.838;2023-02-28T08:51:04;11.27;;;3.30;;
37701;SDS011;23548;51.196;6.838;2023-02-28T08:53:32;18.55;;;3.60;;
37701;SDS011;23548;51.196;6.838;2023-02-28T08:55:59;12.55;;;4.93;;
37701;SDS011;23548;51.196;6.838;2023-02-28T08:58:27;11.88;;;3.47;;
37701;SDS011;23548;51.196;6.838;2023-02-28T09:00:53;16.40;;;3.88;;
37701;SDS011;23548;51.196;6.838;2023-02-28T09:03:19;10.65;;;3.42;;
37701;SDS011;23548;51.196;6.838;2023-02-28T09:05:59;9.75;;;3.50;;
37701;SDS011;23548;51.196;6.838;2023-02-28T09:08:26;7.40;;;3.53;;
37701;SDS011;23548;51.196;6.838;2023-02-28T09:10:53;8.25;;;3.60;;
37701;SDS011;23548;51.196;6.838;2023-02-28T09:13:20;9.80;;;3.10;;
37701;SDS011;23548;51.196;6.838;2023-02-28T09:15:47;8.15;;;3.22;;
37701;SDS011;23548;51.196;6.838;2023-02-28T09:18:13;10.15;;;2.92;;
37701;SDS011;23548;51.196;6.838;2023-02-28T09:20:39;3.47;;;2.50;;
37701;SDS011;23548;51.196;6.838;2023-02-28T09:23:06;4.68;;;2.70;;
37701;SDS011;23548;51.196;6.838;2023-02-28T09:25:33;3.83;;;2.80;;
37701;SDS011;23548;51.196;6.838;2023-02-28T09:28:02;6.97;;;3.00;;
37701;SDS011;23548;51.196;6.838;2023-02-28T09:30:41;5.25;;;2.78;;
37701;SDS011;23548;51.196;6.838;2023-02-28T09:33:08;2.92;;;2.60;;
37701;SDS011;23548;51.196;6.838;2023-02-28T09:35:34;4.18;;;2.83;;
37701;SDS011;23548;51.196;6.838;2023-02-28T09:38:02;4.35;;;2.80;;
37701;SDS011;23548;51.196;6.838;2023-02-28T09:40:28;5.93;;;2.60;;
37701;SDS011;23548;51.196;6.838;2023-02-28T09:42:55;5.13;;;2.65;;
37701;SDS011;23548;51.196;6.838;2023-02-28T09:45:29;3.25;;;2.70;;
37701;SDS011;23548;51.196;6.838;2023-02-28T09:48:02;9.63;;;3.05;;
37701;SDS011;23548;51.196;6.838;2023-02-28T09:50:48;4.30;;;2.10;;
37701;SDS011;23548;51.196;6.838;2023-02-28T09:55:59;2.13;;;1.88;;
37701;SDS011;23548;51.196;6.838;2023-02-28T09:58:43;3.58;;;2.58;;
37701;SDS011;23548;51.196;6.838;2023-02-28T10:01:21;5.07;;;2.40;;
37701;SDS011;23548;51.196;6.838;2023-02-28T10:06:52;4.97;;;1.95;;
37701;SDS011;23548;51.196;6.838;2023-02-28T10:09:19;7.40;;;2.25;;
37701;SDS011;23548;51.196;6.838;2023-02-28T10:11:53;7.53;;;2.20;;
37701;SDS011;23548;51.196;6.838;2023-02-28T10:14:22;9.60;;;2.40;;
37701;SDS011;23548;51.196;6.838;2023-02-28T10:16:52;7.63;;;2.45;;
37701;SDS011;23548;51.196;6.838;2023-02-28T10:25:22;4.53;;;1.85;;
37701;SDS011;23548;51.196;6.838;2023-02-28T10:27:54;5.80;;;1.80;;
37701;SDS011;23548;51.196;6.838;2023-02-28T10:30:26;6.00;;;2.38;;
37701;SDS011;23548;51.196;6.838;2023-02-28T10:32:52;4.50;;;2.33;;
37701;SDS011;23548;51.196;6.838;2023-02-28T10:35:21;3.00;;;2.10;;
37701;SDS011;23548;51.196;6.838;2023-02-28T10:37:49;4.25;;;2.30;;
37701;SDS011;23548;51.196;6.838;2023-02-28T10:43:06;4.97;;;1.90;;
37701;SDS011;23548;51.196;6.838;2023-02-28T10:45:39;6.88;;;2.70;;
37701;SDS011;23548;51.196;6.838;2023-02-28T10:55:56;4.30;;;2.53;;
37701;SDS011;23548;51.196;6.838;2023-02-28T11:03:57;5.32;;;2.60;;
37701;SDS011;23548;51.196;6.838;2023-02-28T11:06:27;3.60;;;2.35;;
37701;SDS011;23548;51.196;6.838;2023-02-28T11:08:57;4.93;;;2.55;;
37701;SDS011;23548;51.196;6.838;2023-02-28T11:11:25;6.32;;;2.70;;
37701;SDS011;23548;51.196;6.838;2023-02-28T11:13:57;5.03;;;2.63;;
37701;SDS011;23548;51.196;6.838;2023-02-28T11:16:33;3.42;;;2.25;;
37701;SDS011;23548;51.196;6.838;2023-02-28T11:19:02;6.20;;;2.90;;
37701;SDS011;23548;51.196;6.838;2023-02-28T11:21:34;4.40;;;2.50;;
37701;SDS011;23548;51.196;6.838;2023-02-28T11:26:53;7.22;;;3.33;;
37701;SDS011;23548;51.196;6.838;2023-02-28T11:29:24;3.65;;;2.58;;
37701;SDS011;23548;51.196;6.838;2023-02-28T11:34:34;4.95;;;2.47;;
37701;SDS011;23548;51.196;6.838;2023-02-28T11:37:01;4.68;;;2.80;;
37701;SDS011;23548;51.196;6.838;2023-02-28T11:39:31;3.92;;;2.80;;
37701;SDS011;23548;51.196;6.838;2023-02-28T11:44:42;12.70;;;3.30;;
37701;SDS011;23548;51.196;6.838;2023-02-28T11:47:34;5.30;;;2.83;;
37701;SDS011;23548;51.196;6.838;2023-02-28T11:50:38;4.63;;;2.90;;
37701;SDS011;23548;51.196;6.838;2023-02-28T11:56:21;3.40;;;2.75;;
37701;SDS011;23548;51.196;6.838;2023-02-28T11:59:08;5.80;;;3.20;;
37701;SDS011;23548;51.196;6.838;2023-02-28T12:01:44;7.90;;;2.83;;
37701;SDS011;23548;51.196;6.838;2023-02-28T12:10:26;5.78;;;3.10;;
37701;SDS011;23548;51.196;6.838;2023-02-28T12:13:15;11.93;;;3.55;;
37701;SDS011;23548;51.196;6.838;2023-02-28T12:15:49;6.40;;;3.00;;
37701;SDS011;23548;51.196;6.838;2023-02-28T12:18:29;3.72;;;3.08;;
37701;SDS011;23548;51.196;6.838;2023-02-28T12:27:29;5.75;;;3.08;;
37701;SDS011;23548;51.196;6.838;2023-02-28T12:30:20;5.43;;;3.88;;
37701;SDS011;23548;51.196;6.838;2023-02-28T12:33:06;6.18;;;3.72;;
37701;SDS011;23548;51.196;6.838;2023-02-28T12:35:41;7.28;;;3.55;;
37701;SDS011;23548;51.196;6.838;2023-02-28T12:38:45;5.57;;;3.40;;
37701;SDS011;23548;51.196;6.838;2023-02-28T12:44:10;6.70;;;3.75;;
37701;SDS011;23548;51.196;6.838;2023-02-28T12:46:41;6.05;;;3.47;;
37701;SDS011;23548;51.196;6.838;2023-02-28T12:49:10;5.43;;;3.40;;
37701;SDS011;23548;51.196;6.838;2023-02-28T12:51:41;4.38;;;3.53;;
37701;SDS011;23548;51.196;6.838;2023-02-28T12:54:15;7.57;;;4.13;;
37701;SDS011;23548;51.196;6.838;2023-02-28T12:59:39;9.35;;;3.95;;
37701;SDS011;23548;51.196;6.838;2023-02-28T13:05:16;12.60;;;3.58;;
37701;SDS011;23548;51.196;6.838;2023-02-28T13:10:52;8.15;;;3.60;;
37701;SDS011;23548;51.196;6.838;2023-02-28T13:13:22;33.65;;;4.45;;
37701;SDS011;23548;51.196;6.838;2023-02-28T13:16:04;14.13;;;3.28;;
37701;SDS011;23548;51.196;6.838;2023-02-28T13:18:36;3.90;;;3.30;;
37701;SDS011;23548;51.196;6.838;2023-02-28T13:21:05;17.10;;;3.90;;
37701;SDS011;23548;51.196;6.838;2023-02-28T13:34:40;106.63;;;8.15;;
37701;SDS011;23548;51.196;6.838;2023-02-28T13:39:51;33.28;;;5.07;;
37701;SDS011;23548;51.196;6.838;2023-02-28T13:45:19;18.70;;;4.53;;
37701;SDS011;23548;51.196;6.838;2023-02-28T13:47:49;8.05;;;3.95;;
37701;SDS011;23548;51.196;6.838;2023-02-28T13:50:40;13.82;;;4.00;;
37701;SDS011;23548;51.196;6.838;2023-02-28T13:55:57;11.73;;;4.47;;
37701;SDS011;23548;51.196;6.838;2023-02-28T13:59:34;10.55;;;4.78;;
37701;SDS011;23548;51.196;6.838;2023-02-28T14:05:09;10.70;;;4.40;;
37701;SDS011;23548;51.196;6.838;2023-02-28T14:07:24;8.50;;;4.90;;
37701;SDS011;23548;51.196;6.838;2023-02-28T14:09:59;6.65;;;4.25;;
37701;SDS011;23548;51.196;6.838;2023-02-28T14:12:52;15.10;;;5.38;;
37701;SDS011;23548;51.196;6.838;2023-02-28T14:15:27;6.40;;;4.05;;
37701;SDS011;23548;51.196;6.838;2023-02-28T14:17:54;5.80;;;4.03;;
37701;SDS011;23548;51.196;6.838;2023-02-28T14:20:21;45.60;;;5.30;;
37701;SDS011;23548;51.196;6.838;2023-02-28T14:22:55;49.08;;;6.03;;
37701;SDS011;23548;51.196;6.838;2023-02-28T14:25:29;15.93;;;4.30;;
37701;SDS011;23548;51.196;6.838;2023-02-28T14:28:04;72.13;;;6.32;;
37701;SDS011;23548;51.196;6.838;2023-02-28T14:38:19;31.52;;;5.40;;
37701;SDS011;23548;51.196;6.838;2023-02-28T14:40:53;9.02;;;3.80;;
37701;SDS011;23548;51.196;6.838;2023-02-28T14:43:23;22.65;;;5.45;;
37701;SDS011;23548;51.196;6.838;2023-02-28T14:45:51;54.63;;;7.90;;
37701;SDS011;23548;51.196;6.838;2023-02-28T14:48:20;12.35;;;4.80;;
37701;SDS011;23548;51.196;6.838;2023-02-28T14:50:54;27.73;;;5.95;;
37701;SDS011;23548;51.196;6.838;2023-02-28T14:53:29;10.45;;;5.13;;
37701;SDS011;23548;51.196;6.838;2023-02-28T14:55:59;7.78;;;4.15;;
37701;SDS011;23548;51.196;6.838;2023-02-28T14:58:26;8.75;;;4.10;;
37701;SDS011;23548;51.196;6.838;2023-02-28T15:00:57;7.22;;;4.75;;
37701;SDS011;23548;51.196;6.838;2023-02-28T15:03:31;5.28;;;3.92;;
37701;SDS011;23548;51.196;6.838;2023-02-28T15:05:59;6.25;;;4.00;;
37701;SDS011;23548;51.196;6.838;2023-02-28T15:08:27;5.93;;;3.90;;
37701;SDS011;23548;51.196;6.838;2023-02-28T15:13:56;4.55;;;3.67;;
37701;SDS011;23548;51.196;6.838;2023-02-28T15:16:23;6.80;;;4.15;;
37701;SDS011;23548;51.196;6.838;2023-02-28T15:18:57;6.55;;;4.00;;
37701;SDS011;23548;51.196;6.838;2023-02-28T15:21:30;8.68;;;4.90;;
37701;SDS011;23548;51.196;6.838;2023-02-28T15:24:08;5.32;;;4.15;;
37701;SDS011;23548;51.196;6.838;2023-02-28T15:26:53;6.93;;;4.47;;
37701;SDS011;23548;51.196;6.838;2023-02-28T15:29:23;6.85;;;4.20;;
37701;SDS011;23548;51.196;6.838;2023-02-28T15:34:25;8.70;;;4.38;;
37701;SDS011;23548;51.196;6.838;2023-02-28T15:39:50;5.88;;;4.95;;
37701;SDS011;23548;51.196;6.838;2023-02-28T15:42:21;6.65;;;4.57;;
37701;SDS011;23548;51.196;6.838;2023-02-28T15:44:51;7.30;;;4.55;;
37701;SDS011;23548;51.196;6.838;2023-02-28T15:47:19;10.68;;;4.65;;
37701;SDS011;23548;51.196;6.838;2023-02-28T15:49:51;6.13;;;4.63;;
37701;SDS011;23548;51.196;6.838;2023-02-28T15:55:22;9.85;;;4.50;;
37701;SDS011;23548;51.196;6.838;2023-02-28T15:57:53;6.93;;;5.18;;
37701;SDS011;23548;51.196;6.838;2023-02-28T16:00:24;5.50;;;4.43;;
37701;SDS011;23548;51.196;6.838;2023-02-28T16:02:52;7.93;;;4.93;;
37701;SDS011;23548;51.196;6.838;2023-02-28T16:05:24;5.88;;;4.72;;
37701;SDS011;23548;51.196;6.838;2023-02-28T16:07:59;6.88;;;4.53;;
37701;SDS011;23548;51.196;6.838;2023-02-28T16:10:39;5.57;;;4.45;;
37701;SDS011;23548;51.196;6.838;2023-02-28T16:13:04;7.10;;;4.55;;
37701;SDS011;23548;51.196;6.838;2023-02-28T16:15:31;8.10;;;4.65;;
37701;SDS011;23548;51.196;6.838;2023-02-28T16:18:07;7.93;;;5.18;;
37701;SDS011;23548;51.196;6.838;2023-02-28T16:20:35;6.50;;;4.38;;
37701;SDS011;23548;51.196;6.838;2023-02-28T16:23:01;7.57;;;4.97;;
37701;SDS011;23548;51.196;6.838;2023-02-28T16:25:34;7.90;;;5.20;;
37701;SDS011;23548;51.196;6.838;2023-02-28T16:28:12;11.63;;;5.05;;
37701;SDS011;23548;51.196;6.838;2023-02-28T16:30:44;7.72;;;5.10;;
37701;SDS011;23548;51.196;6.838;2023-02-28T16:33:10;9.50;;;5.28;;
37701;SDS011;23548;51.196;6.838;2023-02-28T16:35:36;12.75;;;5.10;;
37701;SDS011;23548;51.196;6.838;2023-02-28T16:38:02;8.68;;;5.13;;
37701;SDS011;23548;51.196;6.838;2023-02-28T16:40:28;11.45;;;5.60;;
37701;SDS011;23548;51.196;6.838;2023-02-28T16:42:59;8.00;;;5.75;;
37701;SDS011;23548;51.196;6.838;2023-02-28T16:45:29;8.02;;;5.47;;
37701;SDS011;23548;51.196;6.838;2023-02-28T16:47:54;8.50;;;5.55;;
37701;SDS011;23548;51.196;6.838;2023-02-28T16:50:22;11.30;;;5.97;;
37701;SDS011;23548;51.196;6.838;2023-02-28T16:52:50;9.18;;;5.57;;
37701;SDS011;23548;51.196;6.838;2023-02-28T16:55:17;11.05;;;5.55;;
37701;SDS011;23548;51.196;6.838;2023-02-28T16:57:50;7.60;;;5.75;;
37701;SDS011;23548;51.196;6.838;2023-02-28T17:00:19;9.23;;;6.00;;
37701;SDS011;23548;51.196;6.838;2023-02-28T17:02:45;8.35;;;5.25;;
37701;SDS011;23548;51.196;6.838;2023-02-28T17:05:11;8.35;;;5.40;;
37701;SDS011;23548;51.196;6.838;2023-02-28T17:07:38;7.32;;;5.60;;
37701;SDS011;23548;51.196;6.838;2023-02-28T17:10:13;10.50;;;6.03;;
37701;SDS011;23548;51.196;6.838;2023-02-28T17:12:40;10.23;;;5.88;;
37701;SDS011;23548;51.196;6.838;2023-02-28T17:15:08;11.75;;;6.22;;
37701;SDS011;23548;51.196;6.838;2023-02-28T17:17:35;7.03;;;5.28;;
37701;SDS011;23548;51.196;6.838;2023-02-28T17:20:01;10.90;;;6.25;;
37701;SDS011;23548;51.196;6.838;2023-02-28T17:22:28;10.43;;;6.15;;
37701;SDS011;23548;51.196;6.838;2023-02-28T17:24:53;8.88;;;5.88;;
37701;SDS011;23548;51.196;6.838;2023-02-28T17:27:20;10.45;;;6.43;;
37701;SDS011;23548;51.196;6.838;2023-02-28T17:29:47;9.40;;;5.47;;